ANA724 RJSR-RJTT
Flight info
| Callsign | ANA724 |
|---|---|
| Flight time | 1h 0m |
| Altitude | 33000 |
| Route | YUWA1 UWE Y32 RUBIS Y10 GODIN GODIN1C |
| Aircraft | A320/M-SDE3FGHIRWY/LB1 |
Departure
| Time | 2026-05-04 09:30 |
|---|---|
| Airport | Odate Noshiro Airport (RJSR) |
Arrival
| Time | 2026-05-04 10:30 |
|---|---|
| Airport | Tokyo Haneda International Airport (RJTT) |
| Time | Latitude | Longitude | Altitude | Speed | Heading |
|---|---|---|---|---|---|
| 2026-05-04 09:22 | 40.19483 | 140.37304 | 276 ft | 0 kts | 9° |
| 2026-05-04 09:23 | 40.19482 | 140.37304 | 276 ft | 2 kts | 9° |
| 2026-05-04 09:23 | 40.19458 | 140.37298 | 280 ft | 4 kts | 9° |
| 2026-05-04 09:23 | 40.19439 | 140.37299 | 277 ft | 4 kts | 359° |
| 2026-05-04 09:25 | 40.19428 | 140.37231 | 277 ft | 4 kts | 243° |
| 2026-05-04 09:25 | 40.19408 | 140.37201 | 280 ft | 9 kts | 217° |
| 2026-05-04 09:26 | 40.19318 | 140.37171 | 279 ft | 13 kts | 190° |
| 2026-05-04 09:26 | 40.19231 | 140.37151 | 283 ft | 12 kts | 190° |
| 2026-05-04 09:26 | 40.19181 | 140.37201 | 284 ft | 9 kts | 106° |
| 2026-05-04 09:26 | 40.19164 | 140.37309 | 287 ft | 15 kts | 100° |
| 2026-05-04 09:27 | 40.19148 | 140.37431 | 291 ft | 12 kts | 100° |
| 2026-05-04 09:27 | 40.19134 | 140.37534 | 289 ft | 12 kts | 100° |
| 2026-05-04 09:27 | 40.19117 | 140.37659 | 293 ft | 17 kts | 100° |
| 2026-05-04 09:27 | 40.19098 | 140.37801 | 295 ft | 14 kts | 100° |
| 2026-05-04 09:28 | 40.19081 | 140.37922 | 301 ft | 15 kts | 100° |
| 2026-05-04 09:28 | 40.19058 | 140.38087 | 300 ft | 21 kts | 97° |
| 2026-05-04 09:28 | 40.19079 | 140.38240 | 300 ft | 14 kts | 88° |
| 2026-05-04 09:28 | 40.19039 | 140.38254 | 302 ft | 7 kts | 250° |
| 2026-05-04 09:29 | 40.19046 | 140.38180 | 301 ft | 9 kts | 280° |
| 2026-05-04 09:29 | 40.19061 | 140.38068 | 301 ft | 22 kts | 280° |
| 2026-05-04 09:29 | 40.19131 | 140.37554 | 292 ft | 91 kts | 280° |
| 2026-05-04 09:29 | 40.19268 | 140.36507 | 399 ft | 132 kts | 274° |
| 2026-05-04 09:30 | 40.19424 | 140.35310 | 1013 ft | 134 kts | 277° |
| 2026-05-04 09:30 | 40.19582 | 140.34128 | 1727 ft | 132 kts | 276° |
| 2026-05-04 09:30 | 40.19743 | 140.32913 | 2213 ft | 144 kts | 276° |
| 2026-05-04 09:30 | 40.19925 | 140.31557 | 2519 ft | 157 kts | 276° |
| 2026-05-04 09:31 | 40.20127 | 140.30059 | 2768 ft | 179 kts | 277° |
| 2026-05-04 09:31 | 40.20358 | 140.28343 | 3090 ft | 204 kts | 277° |
| 2026-05-04 09:31 | 40.20458 | 140.26416 | 3587 ft | 221 kts | 258° |
| 2026-05-04 09:31 | 40.19679 | 140.24682 | 4315 ft | 238 kts | 225° |
| 2026-05-04 09:32 | 40.18202 | 140.23587 | 5129 ft | 248 kts | 211° |
| 2026-05-04 09:32 | 40.16610 | 140.22683 | 6140 ft | 250 kts | 209° |
| 2026-05-04 09:34 | 40.04856 | 140.16295 | 10896 ft | 307 kts | 210° |
| 2026-05-04 09:34 | 40.02848 | 140.15177 | 11324 ft | 319 kts | 210° |
| 2026-05-04 09:34 | 40.00786 | 140.14044 | 11982 ft | 322 kts | 210° |
| 2026-05-04 09:34 | 39.98695 | 140.12954 | 12762 ft | 328 kts | 205° |
| 2026-05-04 09:35 | 39.96423 | 140.12350 | 13449 ft | 341 kts | 193° |
| 2026-05-04 09:35 | 39.94007 | 140.12436 | 14090 ft | 355 kts | 181° |
| 2026-05-04 09:35 | 39.91551 | 140.12921 | 14710 ft | 358 kts | 180° |
| 2026-05-04 09:35 | 39.89110 | 140.13402 | 15274 ft | 362 kts | 180° |
| 2026-05-04 09:37 | 39.71230 | 140.16862 | 19313 ft | 375 kts | 182° |
| 2026-05-04 09:37 | 39.68658 | 140.17358 | 19921 ft | 373 kts | 182° |
| 2026-05-04 09:38 | 39.66130 | 140.17846 | 20516 ft | 372 kts | 182° |
| 2026-05-04 09:38 | 39.63577 | 140.18339 | 21104 ft | 370 kts | 183° |
| 2026-05-04 09:38 | 39.61030 | 140.18824 | 21629 ft | 370 kts | 184° |
| 2026-05-04 09:38 | 39.58473 | 140.19238 | 22108 ft | 370 kts | 185° |
| 2026-05-04 09:39 | 39.55915 | 140.19597 | 22645 ft | 368 kts | 186° |
| 2026-05-04 09:39 | 39.53374 | 140.19931 | 23141 ft | 367 kts | 187° |
| 2026-05-04 09:39 | 39.50829 | 140.20259 | 23492 ft | 368 kts | 187° |
| 2026-05-04 09:39 | 39.48279 | 140.20595 | 23878 ft | 369 kts | 187° |
| 2026-05-04 09:40 | 39.45756 | 140.20938 | 24205 ft | 369 kts | 187° |
| 2026-05-04 09:40 | 39.43213 | 140.21297 | 24677 ft | 367 kts | 187° |
| 2026-05-04 09:40 | 39.40673 | 140.21659 | 25108 ft | 367 kts | 188° |
| 2026-05-04 09:40 | 39.38135 | 140.22021 | 25495 ft | 367 kts | 188° |
| 2026-05-04 09:41 | 39.35597 | 140.22381 | 25883 ft | 368 kts | 188° |
| 2026-05-04 09:42 | 39.17604 | 140.24890 | 27917 ft | 377 kts | 189° |
| 2026-05-04 09:43 | 39.14997 | 140.25256 | 28278 ft | 377 kts | 189° |
| 2026-05-04 09:43 | 39.12385 | 140.25623 | 28606 ft | 377 kts | 189° |
| 2026-05-04 09:43 | 39.09781 | 140.25995 | 29131 ft | 375 kts | 191° |
| 2026-05-04 09:43 | 39.07198 | 140.26369 | 29471 ft | 373 kts | 189° |
| 2026-05-04 09:44 | 39.04611 | 140.26733 | 29644 ft | 376 kts | 189° |
| 2026-05-04 09:44 | 39.02015 | 140.27092 | 30054 ft | 373 kts | 190° |
| 2026-05-04 09:44 | 38.99496 | 140.27447 | 30608 ft | 365 kts | 189° |
| 2026-05-04 09:46 | 38.82021 | 140.29849 | 32697 ft | 360 kts | 190° |
| 2026-05-04 09:46 | 38.77071 | 140.30542 | 32727 ft | 360 kts | 190° |
| 2026-05-04 09:47 | 38.72087 | 140.31234 | 32724 ft | 360 kts | 190° |
| 2026-05-04 09:49 | 38.52085 | 140.33976 | 32643 ft | 363 kts | 189° |
| 2026-05-04 09:51 | 38.34418 | 140.37696 | 32589 ft | 390 kts | 178° |
| 2026-05-04 09:51 | 38.29237 | 140.39958 | 32681 ft | 395 kts | 178° |
| 2026-05-04 09:52 | 38.24046 | 140.42247 | 32695 ft | 394 kts | 178° |
| 2026-05-04 09:52 | 38.18865 | 140.44515 | 32616 ft | 394 kts | 178° |
| 2026-05-04 09:53 | 38.13682 | 140.46756 | 32672 ft | 398 kts | 178° |
| 2026-05-04 09:53 | 38.08433 | 140.49020 | 32673 ft | 399 kts | 178° |
| 2026-05-04 09:54 | 38.03173 | 140.51298 | 32660 ft | 400 kts | 178° |
| 2026-05-04 09:54 | 37.97914 | 140.53576 | 32684 ft | 399 kts | 178° |
| 2026-05-04 09:55 | 37.92692 | 140.55827 | 32681 ft | 399 kts | 178° |
| 2026-05-04 09:55 | 37.87435 | 140.58099 | 32683 ft | 399 kts | 178° |
| 2026-05-04 09:56 | 37.82180 | 140.60359 | 32678 ft | 399 kts | 178° |
| 2026-05-04 09:56 | 37.76930 | 140.62419 | 32685 ft | 383 kts | 185° |
| 2026-05-04 09:56 | 37.74346 | 140.62789 | 32686 ft | 366 kts | 193° |
| 2026-05-04 09:57 | 37.71888 | 140.62640 | 32676 ft | 352 kts | 200° |
| 2026-05-04 09:57 | 37.67162 | 140.61349 | 32677 ft | 349 kts | 204° |
| 2026-05-04 09:58 | 37.62419 | 140.59977 | 32693 ft | 350 kts | 204° |
| 2026-05-04 09:58 | 37.57675 | 140.58618 | 32692 ft | 350 kts | 204° |
| 2026-05-04 10:00 | 37.38754 | 140.53199 | 32684 ft | 350 kts | 204° |
| 2026-05-04 10:04 | 37.05447 | 140.43729 | 32654 ft | 352 kts | 203° |
| 2026-05-04 10:04 | 37.00668 | 140.42371 | 32666 ft | 352 kts | 203° |
| 2026-05-04 10:05 | 36.95860 | 140.41017 | 32694 ft | 355 kts | 203° |
| 2026-05-04 10:05 | 36.91065 | 140.39665 | 32693 ft | 356 kts | 203° |
| 2026-05-04 10:06 | 36.86234 | 140.38303 | 32696 ft | 356 kts | 203° |
| 2026-05-04 10:06 | 36.81398 | 140.36941 | 32688 ft | 357 kts | 202° |
| 2026-05-04 10:08 | 36.64257 | 140.32891 | 32629 ft | 361 kts | 199° |
| 2026-05-04 10:08 | 36.59289 | 140.31943 | 32633 ft | 361 kts | 199° |
| 2026-05-04 10:09 | 36.56812 | 140.31455 | 32280 ft | 358 kts | 199° |
| 2026-05-04 10:09 | 36.54348 | 140.30964 | 30829 ft | 361 kts | 200° |
| 2026-05-04 10:09 | 36.51847 | 140.30454 | 29247 ft | 367 kts | 200° |
| 2026-05-04 10:09 | 36.49344 | 140.29942 | 27703 ft | 370 kts | 200° |
| 2026-05-04 10:10 | 36.46861 | 140.29418 | 27103 ft | 347 kts | 204° |
| 2026-05-04 10:10 | 36.44649 | 140.28478 | 26619 ft | 331 kts | 214° |
| 2026-05-04 10:10 | 36.42733 | 140.26986 | 25945 ft | 321 kts | 224° |
| 2026-05-04 10:10 | 36.41168 | 140.25061 | 25320 ft | 315 kts | 233° |
| 2026-05-04 10:11 | 36.39968 | 140.22806 | 24704 ft | 313 kts | 242° |
| 2026-05-04 10:11 | 36.39163 | 140.20294 | 24084 ft | 315 kts | 250° |
| 2026-05-04 10:11 | 36.38642 | 140.17655 | 23489 ft | 315 kts | 252° |
| 2026-05-04 10:11 | 36.38135 | 140.15057 | 22830 ft | 314 kts | 252° |
| 2026-05-04 10:12 | 36.37619 | 140.12440 | 22204 ft | 310 kts | 252° |
| 2026-05-04 10:12 | 36.37110 | 140.09852 | 21704 ft | 307 kts | 252° |
| 2026-05-04 10:12 | 36.36606 | 140.07285 | 21107 ft | 305 kts | 252° |
| 2026-05-04 10:12 | 36.35972 | 140.04802 | 20559 ft | 299 kts | 243° |
| 2026-05-04 10:13 | 36.34835 | 140.02671 | 20025 ft | 297 kts | 230° |
| 2026-05-04 10:13 | 36.33241 | 140.01035 | 19453 ft | 302 kts | 217° |
| 2026-05-04 10:13 | 36.31278 | 140.00023 | 19003 ft | 313 kts | 203° |
| 2026-05-04 10:13 | 36.29072 | 139.99700 | 18493 ft | 323 kts | 194° |
| 2026-05-04 10:14 | 36.26858 | 139.99555 | 18016 ft | 322 kts | 194° |
| 2026-05-04 10:14 | 36.24622 | 139.99417 | 17465 ft | 321 kts | 194° |
| 2026-05-04 10:16 | 36.09168 | 139.98411 | 13959 ft | 317 kts | 193° |
| 2026-05-04 10:16 | 36.06932 | 139.98478 | 13425 ft | 328 kts | 184° |
| 2026-05-04 10:16 | 36.04671 | 139.99133 | 13074 ft | 339 kts | 172° |
| 2026-05-04 10:16 | 36.02446 | 140.00141 | 12623 ft | 341 kts | 171° |
| 2026-05-04 10:17 | 36.00222 | 140.01148 | 12064 ft | 340 kts | 169° |
| 2026-05-04 10:17 | 35.97997 | 140.02149 | 11490 ft | 340 kts | 168° |
| 2026-05-04 10:19 | 35.83716 | 140.08604 | 9898 ft | 287 kts | 166° |
| 2026-05-04 10:19 | 35.81833 | 140.09441 | 9775 ft | 288 kts | 165° |
| 2026-05-04 10:19 | 35.79948 | 140.10282 | 9664 ft | 288 kts | 165° |
| 2026-05-04 10:19 | 35.78059 | 140.11126 | 9393 ft | 289 kts | 165° |
| 2026-05-04 10:20 | 35.76172 | 140.11973 | 8975 ft | 289 kts | 164° |
| 2026-05-04 10:20 | 35.74311 | 140.12806 | 8566 ft | 288 kts | 165° |
| 2026-05-04 10:20 | 35.72424 | 140.13650 | 8152 ft | 289 kts | 164° |
| 2026-05-04 10:20 | 35.70535 | 140.14496 | 7712 ft | 290 kts | 164° |
| 2026-05-04 10:21 | 35.68634 | 140.15347 | 7274 ft | 292 kts | 164° |
| 2026-05-04 10:21 | 35.66720 | 140.16201 | 6826 ft | 293 kts | 164° |
| 2026-05-04 10:21 | 35.64753 | 140.16629 | 6367 ft | 283 kts | 190° |
| 2026-05-04 10:21 | 35.62974 | 140.15929 | 5940 ft | 261 kts | 218° |
| 2026-05-04 10:22 | 35.60946 | 140.12678 | 5146 ft | 234 kts | 250° |
| 2026-05-04 10:22 | 35.60566 | 140.10824 | 4986 ft | 212 kts | 269° |
| 2026-05-04 10:22 | 35.60551 | 140.09096 | 4992 ft | 195 kts | 274° |
| 2026-05-04 10:23 | 35.60543 | 140.07469 | 4981 ft | 188 kts | 274° |
| 2026-05-04 10:23 | 35.60534 | 140.05868 | 4688 ft | 185 kts | 274° |
| 2026-05-04 10:25 | 35.60471 | 139.96723 | 3108 ft | 139 kts | 273° |
| 2026-05-04 10:25 | 35.60465 | 139.95528 | 2914 ft | 139 kts | 273° |
| 2026-05-04 10:25 | 35.60458 | 139.94345 | 2717 ft | 137 kts | 273° |
| 2026-05-04 10:25 | 35.60450 | 139.93168 | 2515 ft | 138 kts | 272° |
| 2026-05-04 10:26 | 35.60442 | 139.92008 | 2329 ft | 137 kts | 273° |
| 2026-05-04 10:26 | 35.60435 | 139.90843 | 2131 ft | 136 kts | 273° |
| 2026-05-04 10:26 | 35.60428 | 139.89683 | 1938 ft | 136 kts | 271° |
| 2026-05-04 10:26 | 35.60420 | 139.88526 | 1740 ft | 135 kts | 271° |
| 2026-05-04 10:27 | 35.60414 | 139.87369 | 1545 ft | 135 kts | 271° |
| 2026-05-04 10:27 | 35.60408 | 139.86216 | 1351 ft | 135 kts | 271° |
| 2026-05-04 10:27 | 35.60400 | 139.85067 | 1156 ft | 134 kts | 272° |
| 2026-05-04 10:27 | 35.60388 | 139.83917 | 959 ft | 136 kts | 270° |
| 2026-05-04 10:28 | 35.60247 | 139.82794 | 866 ft | 134 kts | 258° |
| 2026-05-04 10:28 | 35.59976 | 139.81671 | 760 ft | 137 kts | 250° |
| 2026-05-04 10:28 | 35.59560 | 139.80594 | 681 ft | 138 kts | 240° |
| 2026-05-04 10:28 | 35.58971 | 139.79683 | 581 ft | 137 kts | 224° |
| 2026-05-04 10:29 | 35.58214 | 139.78985 | 430 ft | 136 kts | 216° |
| 2026-05-04 10:29 | 35.57439 | 139.78329 | 261 ft | 135 kts | 216° |
| 2026-05-04 10:29 | 35.56687 | 139.77657 | 83 ft | 133 kts | 215° |
| 2026-05-04 10:29 | 35.55997 | 139.77063 | 31 ft | 102 kts | 215° |
| 2026-05-04 10:30 | 35.55554 | 139.76686 | 27 ft | 53 kts | 215° |
| 2026-05-04 10:30 | 35.55367 | 139.76532 | 24 ft | 25 kts | 208° |
| 2026-05-04 10:30 | 35.55226 | 139.76471 | 25 ft | 16 kts | 192° |
| 2026-05-04 10:30 | 35.55145 | 139.76454 | 25 ft | 6 kts | 189° |
| 2026-05-04 10:31 | 35.55098 | 139.76457 | 25 ft | 7 kts | 157° |
| 2026-05-04 10:31 | 35.55070 | 139.76501 | 27 ft | 6 kts | 102° |
| 2026-05-04 10:32 | 35.55279 | 139.76721 | 25 ft | 11 kts | 35° |
| 2026-05-04 10:33 | 35.55335 | 139.76769 | 24 ft | 9 kts | 35° |
| 2026-05-04 10:33 | 35.55382 | 139.76810 | 24 ft | 8 kts | 35° |
| 2026-05-04 10:33 | 35.55421 | 139.76843 | 24 ft | 6 kts | 35° |
| 2026-05-04 10:33 | 35.55461 | 139.76878 | 25 ft | 6 kts | 36° |
| 2026-05-04 10:34 | 35.55491 | 139.76904 | 24 ft | 5 kts | 35° |
| 2026-05-04 10:34 | 35.55530 | 139.76938 | 25 ft | 10 kts | 34° |
| 2026-05-04 10:34 | 35.55601 | 139.76997 | 23 ft | 12 kts | 34° |
| 2026-05-04 10:34 | 35.55665 | 139.77052 | 24 ft | 9 kts | 35° |
| 2026-05-04 10:35 | 35.55704 | 139.77086 | 25 ft | 5 kts | 36° |
| 2026-05-04 10:35 | 35.55727 | 139.77107 | 31 ft | 6 kts | 35° |
| 2026-05-04 10:35 | 35.55773 | 139.77146 | 25 ft | 10 kts | 35° |
| 2026-05-04 10:35 | 35.55835 | 139.77199 | 23 ft | 11 kts | 34° |
| 2026-05-04 10:36 | 35.55887 | 139.77243 | 27 ft | 8 kts | 35° |
| 2026-05-04 10:36 | 35.55930 | 139.77293 | 29 ft | 8 kts | 58° |
| 2026-05-04 10:36 | 35.55956 | 139.77351 | 27 ft | 8 kts | 60° |
| 2026-05-04 10:36 | 35.55987 | 139.77418 | 25 ft | 11 kts | 60° |
| 2026-05-04 10:37 | 35.56024 | 139.77496 | 23 ft | 10 kts | 59° |
| 2026-05-04 10:37 | 35.56055 | 139.77562 | 24 ft | 8 kts | 60° |
| 2026-05-04 10:37 | 35.56082 | 139.77618 | 25 ft | 7 kts | 60° |
| 2026-05-04 10:37 | 35.56109 | 139.77675 | 24 ft | 10 kts | 59° |
| 2026-05-04 10:39 | 35.56333 | 139.78149 | 30 ft | 9 kts | 60° |
| 2026-05-04 10:39 | 35.56329 | 139.78216 | 25 ft | 10 kts | 128° |
| 2026-05-04 10:39 | 35.56270 | 139.78260 | 25 ft | 10 kts | 150° |
| 2026-05-04 10:40 | 35.56204 | 139.78307 | 24 ft | 11 kts | 149° |
| 2026-05-04 10:40 | 35.56178 | 139.78326 | 25 ft | 0 kts | 149° |
| 2026-05-04 10:40 | 35.56176 | 139.78328 | 25 ft | 2 kts | 149° |
| 2026-05-04 10:41 | 35.56167 | 139.78352 | 24 ft | 5 kts | 89° |
| 2026-05-04 10:41 | 35.56175 | 139.78379 | 25 ft | 2 kts | 61° |
| 2026-05-04 10:41 | 35.56180 | 139.78388 | 17 ft | 2 kts | 59° |
| 2026-05-04 10:41 | 35.56184 | 139.78397 | 16 ft | 0 kts | 59° |
| 2026-05-04 10:42 | 35.56185 | 139.78398 | 15 ft | 0 kts | 59° |
| 2026-05-04 10:42 | 35.56190 | 139.78409 | 10 ft | 2 kts | 59° |
| 2026-05-04 10:42 | 35.56196 | 139.78421 | 6 ft | 2 kts | 59° |
| 2026-05-04 10:42 | 35.56203 | 139.78436 | 33 ft | 2 kts | 59° |
| 2026-05-04 10:43 | 35.56205 | 139.78441 | 31 ft | 0 kts | 59° |